createdAt,value
2022-10-22T00:01:30.840Z,15.18
2022-10-22T00:04:02.973Z,15.15
2022-10-22T00:06:34.541Z,15.28
2022-10-22T00:09:06.715Z,15.16
2022-10-22T00:11:38.361Z,15.21
2022-10-22T00:14:10.281Z,15.18
2022-10-22T00:19:31.970Z,15.45
2022-10-22T00:22:05.879Z,15.50
2022-10-22T00:24:39.397Z,15.53
2022-10-22T00:27:13.270Z,15.71
2022-10-22T00:29:45.593Z,15.49
2022-10-22T00:32:19.769Z,15.53
2022-10-22T00:34:51.741Z,15.41
2022-10-22T00:37:23.362Z,15.57
2022-10-22T00:39:55.551Z,15.42
2022-10-22T00:42:30.394Z,15.42
2022-10-22T00:45:18.982Z,15.64
2022-10-22T00:47:59.380Z,15.51
2022-10-22T00:50:36.011Z,15.42
2022-10-22T00:53:11.811Z,15.46
2022-10-22T00:55:46.923Z,15.56
2022-10-22T00:58:21.400Z,15.59
2022-10-22T01:00:53.638Z,15.46
2022-10-22T01:03:28.362Z,15.74
2022-10-22T01:06:03.104Z,15.64
2022-10-22T01:08:44.792Z,15.31
2022-10-22T01:11:24.341Z,15.50
2022-10-22T01:14:11.880Z,15.61
2022-10-22T01:16:51.174Z,15.57
2022-10-22T01:19:49.021Z,15.40
2022-10-22T01:22:29.681Z,15.41
2022-10-22T01:25:03.400Z,15.51
2022-10-22T01:27:57.741Z,15.48
2022-10-22T01:30:32.252Z,15.37
2022-10-22T01:33:08.552Z,15.50
2022-10-22T01:35:43.492Z,15.42
2022-10-22T01:38:18.241Z,15.40
2022-10-22T01:40:51.171Z,15.39
2022-10-22T01:43:23.701Z,15.32
2022-10-22T01:46:02.351Z,15.47
2022-10-22T01:48:44.121Z,15.42
2022-10-22T01:51:44.490Z,15.49
2022-10-22T01:54:30.889Z,15.70
2022-10-22T01:57:12.092Z,15.82
2022-10-22T02:00:04.151Z,15.50
2022-10-22T02:02:52.893Z,15.30
2022-10-22T02:05:28.334Z,15.31
2022-10-22T02:08:04.961Z,15.36
2022-10-22T02:10:41.261Z,15.36
2022-10-22T02:13:19.041Z,15.47
2022-10-22T02:15:54.801Z,15.20
2022-10-22T02:18:36.404Z,15.20
2022-10-22T02:21:18.534Z,15.38
2022-10-22T02:23:51.523Z,15.33
2022-10-22T02:26:28.291Z,15.26
2022-10-22T02:29:06.321Z,15.11
2022-10-22T02:31:42.508Z,15.37
2022-10-22T02:34:22.812Z,15.16
2022-10-22T02:36:56.242Z,15.26
2022-10-22T02:39:29.821Z,15.09
2022-10-22T02:42:01.861Z,15.07
2022-10-22T02:44:33.589Z,15.28
2022-10-22T02:47:05.700Z,15.27
2022-10-22T02:49:39.891Z,15.08
2022-10-22T02:52:11.854Z,15.14
2022-10-22T02:54:43.520Z,15.00
2022-10-22T02:57:15.616Z,15.03
2022-10-22T02:59:47.222Z,14.96
2022-10-22T03:02:19.561Z,14.85
2022-10-22T03:04:53.999Z,14.86
2022-10-22T03:07:25.961Z,14.83
2022-10-22T03:09:57.572Z,14.84
2022-10-22T03:12:29.551Z,14.77
2022-10-22T03:15:01.170Z,14.76
2022-10-22T03:17:33.161Z,14.79
2022-10-22T03:20:08.002Z,14.94
2022-10-22T03:22:43.541Z,14.89
2022-10-22T03:25:19.699Z,14.89
2022-10-22T03:27:53.461Z,14.85
2022-10-22T03:30:25.121Z,14.86
2022-10-22T03:32:57.150Z,14.91
2022-10-22T03:35:31.549Z,14.99
2022-10-22T03:38:04.550Z,14.96
2022-10-22T03:40:36.331Z,15.15
2022-10-22T03:43:08.400Z,15.36
2022-10-22T03:45:39.963Z,15.17
2022-10-22T03:48:12.141Z,15.10
2022-10-22T03:50:46.371Z,15.01
2022-10-22T03:53:18.432Z,14.94
2022-10-22T03:55:50.202Z,14.99
2022-10-22T03:58:22.223Z,15.00
2022-10-22T04:00:53.835Z,14.95
2022-10-22T04:03:46.088Z,14.94
2022-10-22T04:06:20.651Z,14.94
2022-10-22T04:08:53.000Z,14.91
2022-10-22T04:11:24.669Z,14.97
2022-10-22T04:13:56.703Z,14.99
2022-10-22T04:16:31.170Z,15.06
2022-10-22T04:19:03.120Z,14.92
2022-10-22T04:21:37.772Z,14.98
2022-10-22T04:24:09.891Z,15.00
2022-10-22T04:26:41.292Z,15.12
2022-10-22T04:29:16.050Z,15.09
2022-10-22T04:31:47.881Z,15.25
2022-10-22T04:34:19.633Z,15.14
2022-10-22T04:36:53.482Z,15.22
2022-10-22T04:39:25.272Z,15.04
2022-10-22T04:41:56.670Z,15.27
2022-10-22T04:44:28.429Z,15.02
2022-10-22T04:46:59.721Z,15.11
2022-10-22T04:49:31.531Z,14.88
2022-10-22T04:52:05.471Z,14.98
2022-10-22T04:54:37.403Z,14.97
2022-10-22T04:57:08.910Z,15.02
2022-10-22T04:59:40.890Z,14.87
2022-10-22T05:02:12.212Z,15.08
2022-10-22T05:04:44.200Z,14.87
2022-10-22T05:07:18.453Z,14.90
2022-10-22T05:09:50.081Z,14.89
2022-10-22T05:12:21.422Z,14.87
2022-10-22T05:14:53.140Z,14.83
2022-10-22T05:17:24.459Z,14.70
2022-10-22T05:19:56.170Z,14.71
2022-10-22T05:22:29.992Z,14.65
2022-10-22T05:25:01.885Z,14.60
2022-10-22T05:27:33.312Z,14.61
2022-10-22T05:30:05.021Z,14.52
2022-10-22T05:32:38.140Z,14.53
2022-10-22T05:35:10.253Z,14.49
2022-10-22T05:37:46.370Z,14.54
2022-10-22T05:40:30.205Z,14.49
2022-10-22T05:43:02.701Z,14.46
2022-10-22T05:45:34.360Z,14.52
2022-10-22T05:48:05.631Z,14.63
2022-10-22T05:50:39.241Z,14.66
2022-10-22T05:53:13.881Z,14.53
2022-10-22T05:55:45.550Z,14.51
2022-10-22T05:58:17.331Z,14.47
2022-10-22T06:00:49.050Z,14.56
2022-10-22T06:03:20.340Z,14.64
2022-10-22T06:05:52.013Z,14.59
2022-10-22T06:08:26.202Z,14.69
2022-10-22T06:10:58.022Z,14.46
2022-10-22T06:13:29.501Z,14.41
2022-10-22T06:16:01.450Z,14.57
2022-10-22T06:18:32.779Z,14.47
2022-10-22T06:21:08.961Z,14.29
2022-10-22T06:23:43.823Z,14.30
2022-10-22T06:26:18.243Z,14.21
2022-10-22T06:28:49.821Z,14.24
2022-10-22T06:31:22.061Z,14.41
2022-10-22T06:33:53.682Z,14.46
2022-10-22T06:36:27.822Z,14.53
2022-10-22T06:39:02.221Z,14.59
2022-10-22T06:41:34.557Z,14.81
2022-10-22T06:44:06.150Z,14.89
2022-10-22T06:46:41.226Z,14.94
2022-10-22T06:49:17.421Z,14.97
2022-10-22T06:51:52.551Z,15.28
2022-10-22T06:54:27.455Z,15.13
2022-10-22T06:56:59.471Z,15.23
2022-10-22T06:59:31.081Z,15.47
2022-10-22T07:02:03.078Z,15.34
2022-10-22T07:04:34.681Z,15.23
2022-10-22T07:07:06.614Z,15.12
2022-10-22T07:09:40.938Z,15.37
2022-10-22T07:12:14.034Z,15.40
2022-10-22T07:14:45.750Z,15.27
2022-10-22T07:17:17.802Z,15.39
2022-10-22T07:19:51.264Z,15.50
2022-10-22T07:22:24.222Z,15.56
2022-10-22T07:30:48.060Z,15.80
2022-10-22T07:33:20.481Z,15.51
2022-10-22T07:35:52.262Z,15.79
2022-10-22T07:38:24.461Z,16.15
2022-10-22T07:40:59.361Z,16.28
2022-10-22T07:43:31.661Z,16.53
2022-10-22T07:46:03.420Z,16.34
2022-10-22T07:48:35.587Z,16.04
2022-10-22T07:51:08.022Z,16.31
2022-10-22T07:53:40.600Z,16.13
2022-10-22T07:56:15.241Z,16.33
2022-10-22T07:58:47.491Z,16.54
2022-10-22T08:01:19.319Z,16.63
2022-10-22T08:03:52.082Z,16.88
2022-10-22T08:06:23.844Z,16.52
2022-10-22T08:08:56.026Z,16.73
2022-10-22T08:11:31.330Z,16.86
2022-10-22T08:14:03.567Z,16.89
2022-10-22T08:16:35.361Z,16.89
2022-10-22T08:19:07.761Z,17.16
2022-10-22T08:21:39.503Z,17.00
2022-10-22T08:24:11.849Z,17.10
2022-10-22T08:26:50.489Z,17.03
2022-10-22T08:29:23.540Z,17.04
2022-10-22T08:31:55.988Z,17.15
2022-10-22T08:34:28.302Z,16.96
2022-10-22T08:37:00.182Z,17.17
2022-10-22T08:39:32.541Z,17.00
2022-10-22T08:42:24.222Z,16.89
2022-10-22T08:45:11.761Z,16.99
2022-10-22T08:48:02.083Z,17.26
2022-10-22T08:50:38.821Z,17.03
2022-10-22T08:53:17.610Z,16.79
2022-10-22T08:55:50.431Z,16.84
2022-10-22T08:58:31.064Z,16.91
2022-10-22T09:01:05.313Z,17.19
2022-10-22T09:03:48.241Z,17.13
2022-10-22T09:06:24.429Z,17.06
2022-10-22T09:08:57.869Z,17.35
2022-10-22T09:11:33.722Z,17.54
2022-10-22T09:14:09.229Z,17.46
2022-10-22T09:17:01.629Z,17.40
2022-10-22T09:19:38.983Z,17.43
2022-10-22T09:22:21.701Z,17.00
2022-10-22T09:25:01.218Z,17.08
2022-10-22T09:27:34.754Z,17.34
2022-10-22T09:30:10.872Z,17.48
2022-10-22T09:32:43.474Z,17.83
2022-10-22T09:35:16.412Z,17.22
2022-10-22T09:37:53.892Z,17.52
2022-10-22T09:40:25.912Z,17.81
2022-10-22T09:42:57.892Z,18.05
2022-10-22T09:45:32.011Z,17.92
2022-10-22T09:48:15.233Z,18.06
2022-10-22T09:50:48.853Z,18.45
2022-10-22T09:53:25.155Z,18.76
2022-10-22T09:55:58.452Z,18.69
2022-10-22T09:58:30.922Z,18.32
2022-10-22T10:01:05.552Z,18.01
2022-10-22T10:03:37.851Z,18.46
2022-10-22T10:06:10.372Z,18.04
2022-10-22T10:08:42.376Z,17.96
2022-10-22T10:11:22.771Z,17.91
2022-10-22T10:14:10.134Z,18.04
2022-10-22T10:16:53.119Z,17.95
2022-10-22T10:19:37.052Z,17.87
2022-10-22T10:22:16.524Z,17.81
2022-10-22T10:25:23.104Z,17.23
2022-10-22T10:28:02.423Z,17.47
2022-10-22T10:30:36.426Z,17.52
2022-10-22T10:33:24.785Z,16.78
2022-10-22T10:36:30.965Z,17.25
2022-10-22T10:39:08.172Z,17.81
2022-10-22T10:41:53.006Z,17.75
2022-10-22T10:44:50.685Z,17.37
2022-10-22T10:47:35.697Z,17.50
2022-10-22T10:50:22.195Z,17.47
2022-10-22T10:53:05.866Z,17.95
2022-10-22T10:55:56.125Z,18.30
2022-10-22T10:58:37.625Z,18.20
2022-10-22T11:01:21.439Z,18.00
2022-10-22T11:04:24.326Z,18.52
2022-10-22T11:07:11.033Z,19.11
2022-10-22T11:09:47.925Z,19.03
2022-10-22T11:12:25.606Z,19.31
2022-10-22T11:15:05.684Z,19.32
2022-10-22T11:17:42.585Z,19.13
2022-10-22T11:20:21.586Z,19.41
2022-10-22T11:23:18.946Z,19.43
2022-10-22T11:25:53.253Z,19.87
2022-10-22T11:28:30.966Z,19.73
2022-10-22T11:31:06.944Z,20.54
2022-10-22T11:33:47.106Z,20.86
2022-10-22T11:36:21.689Z,21.45
2022-10-22T11:38:56.064Z,21.45
2022-10-22T11:41:32.189Z,21.41
2022-10-22T11:44:15.110Z,20.99
2022-10-22T11:46:56.846Z,20.97
2022-10-22T11:49:30.416Z,21.15
2022-10-22T11:52:28.303Z,20.89
2022-10-22T11:55:05.648Z,21.10
2022-10-22T11:57:40.585Z,21.18
2022-10-22T12:00:35.949Z,21.29
2022-10-22T12:03:36.767Z,21.05
2022-10-22T12:06:29.931Z,20.63
2022-10-22T12:09:06.003Z,20.50
2022-10-22T12:11:55.861Z,20.13
2022-10-22T12:14:33.222Z,19.61
2022-10-22T12:17:30.670Z,19.02
2022-10-22T12:20:13.757Z,19.38
2022-10-22T12:22:54.859Z,19.55
2022-10-22T12:25:35.896Z,19.55
2022-10-22T12:28:19.216Z,19.56
2022-10-22T12:30:52.806Z,19.43
2022-10-22T12:33:27.107Z,19.61
2022-10-22T12:36:04.226Z,20.14
2022-10-22T12:38:48.585Z,20.04
2022-10-22T12:41:25.863Z,19.64
2022-10-22T12:44:05.819Z,19.66
2022-10-22T12:46:38.625Z,19.83
2022-10-22T12:49:27.311Z,20.04
2022-10-22T12:51:58.573Z,19.71
2022-10-22T12:54:38.367Z,19.74
2022-10-22T12:57:15.823Z,19.65
2022-10-22T12:59:55.043Z,19.74
2022-10-22T13:02:31.015Z,19.49
2022-10-22T13:05:30.583Z,19.49
2022-10-22T13:08:20.729Z,19.51
2022-10-22T13:10:54.356Z,19.78
2022-10-22T13:13:35.347Z,19.77
2022-10-22T13:16:24.972Z,19.64
2022-10-22T13:18:57.789Z,19.74
2022-10-22T13:21:38.263Z,19.51
2022-10-22T13:24:24.605Z,19.50
2022-10-22T13:26:58.060Z,19.68
2022-10-22T13:29:30.008Z,19.62
2022-10-22T13:32:04.273Z,19.63
2022-10-22T13:34:36.853Z,19.73
2022-10-22T13:37:12.110Z,19.69
2022-10-22T13:44:27.583Z,19.67
2022-10-22T13:46:59.458Z,19.78
2022-10-22T13:49:33.702Z,19.60
2022-10-22T13:52:05.685Z,19.47
2022-10-22T13:54:38.269Z,19.54
2022-10-22T13:57:12.220Z,19.64
2022-10-22T13:59:43.744Z,19.76
2022-10-22T14:02:16.707Z,19.76
2022-10-22T14:04:53.007Z,19.68
2022-10-22T14:07:25.043Z,19.67
2022-10-22T14:09:56.793Z,19.80
2022-10-22T14:12:28.822Z,19.53
2022-10-22T14:15:00.567Z,19.60
2022-10-22T14:17:33.464Z,19.61
2022-10-22T14:20:08.161Z,19.75
2022-10-22T14:22:40.109Z,19.66
2022-10-22T14:25:16.039Z,19.75
2022-10-22T14:27:48.338Z,19.69
2022-10-22T14:30:22.099Z,19.77
2022-10-22T14:32:54.537Z,19.88
2022-10-22T14:35:29.161Z,19.72
2022-10-22T14:38:01.119Z,19.81
2022-10-22T14:40:32.872Z,19.64
2022-10-22T14:43:04.702Z,19.63
2022-10-22T14:45:36.284Z,19.85
2022-10-22T14:48:08.853Z,19.73
2022-10-22T14:50:43.338Z,19.67
2022-10-22T14:53:17.020Z,19.67
2022-10-22T14:55:51.770Z,19.43
2022-10-22T14:58:23.692Z,19.43
2022-10-22T15:00:55.408Z,19.35
2022-10-22T15:03:27.512Z,19.44
2022-10-22T15:06:01.850Z,19.53
2022-10-22T15:08:34.393Z,19.32
2022-10-22T15:11:07.812Z,19.43
2022-10-22T15:13:41.488Z,19.16
2022-10-22T15:16:16.291Z,19.07
2022-10-22T15:18:48.568Z,19.02
2022-10-22T15:21:24.971Z,19.12
2022-10-22T15:23:57.248Z,19.01
2022-10-22T15:26:29.511Z,18.90
2022-10-22T15:29:01.835Z,18.81
2022-10-22T15:31:48.926Z,18.60
2022-10-22T15:34:26.028Z,18.61
2022-10-22T15:37:02.507Z,18.56
2022-10-22T15:39:35.533Z,18.52
2022-10-22T15:42:10.682Z,18.47
2022-10-22T15:44:43.428Z,18.41
2022-10-22T15:47:15.371Z,18.30
2022-10-22T15:49:47.987Z,18.29
2022-10-22T15:52:22.765Z,18.16
2022-10-22T15:54:54.429Z,18.12
2022-10-22T15:57:25.776Z,17.93
2022-10-22T16:00:11.852Z,17.94
2022-10-22T16:02:45.265Z,17.78
2022-10-22T16:05:17.765Z,17.75
2022-10-22T16:07:51.615Z,17.64
2022-10-22T16:10:22.919Z,17.64
2022-10-22T16:12:54.741Z,17.57
2022-10-22T16:15:25.845Z,17.54
2022-10-22T16:17:56.608Z,17.40
2022-10-22T16:20:30.114Z,17.31
2022-10-22T16:23:03.599Z,17.26
2022-10-22T16:25:40.961Z,17.17
2022-10-22T16:28:13.790Z,17.11
2022-10-22T16:30:45.430Z,17.10
2022-10-22T16:33:16.182Z,16.97
2022-10-22T16:35:47.314Z,16.97
2022-10-22T16:38:23.801Z,16.89
2022-10-22T16:40:56.352Z,16.94
2022-10-22T16:43:29.941Z,16.93
2022-10-22T16:46:01.151Z,16.83
2022-10-22T16:48:32.740Z,16.76
2022-10-22T16:51:12.571Z,16.73
2022-10-22T16:53:46.476Z,16.72
2022-10-22T16:56:27.032Z,16.64
2022-10-22T16:59:01.256Z,16.62
2022-10-22T17:01:41.924Z,16.61
2022-10-22T17:04:21.703Z,16.58
2022-10-22T17:06:58.091Z,16.56
2022-10-22T17:09:32.693Z,16.51
2022-10-22T17:12:04.531Z,16.48
2022-10-22T17:14:35.997Z,16.46
2022-10-22T17:17:08.093Z,16.52
2022-10-22T17:19:41.490Z,16.59
2022-10-22T17:22:16.229Z,16.57
2022-10-22T17:25:11.217Z,16.52
2022-10-22T17:27:43.942Z,16.63
2022-10-22T17:30:23.477Z,16.61
2022-10-22T17:32:59.190Z,16.50
2022-10-22T17:35:31.081Z,16.54
2022-10-22T17:38:03.212Z,16.71
2022-10-22T17:40:39.376Z,16.58
2022-10-22T17:43:11.551Z,16.48
2022-10-22T17:45:43.571Z,16.39
2022-10-22T17:48:15.852Z,16.45
2022-10-22T17:50:50.393Z,16.58
2022-10-22T17:53:24.370Z,16.66
2022-10-22T17:56:07.453Z,16.51
2022-10-22T17:58:40.471Z,16.43
2022-10-22T18:01:20.956Z,16.37
2022-10-22T18:03:54.294Z,16.34
2022-10-22T18:06:26.611Z,16.31
2022-10-22T18:08:59.041Z,16.35
2022-10-22T18:11:36.635Z,16.53
2022-10-22T18:14:09.412Z,16.41
2022-10-22T18:16:42.573Z,16.45
2022-10-22T18:19:17.675Z,16.50
2022-10-22T18:21:50.032Z,16.58
2022-10-22T18:24:22.754Z,16.62
2022-10-22T18:26:58.411Z,16.78
2022-10-22T18:29:31.038Z,16.59
2022-10-22T18:32:09.422Z,16.70
2022-10-22T18:34:45.611Z,16.66
2022-10-22T18:37:18.091Z,16.58
2022-10-22T18:39:50.490Z,16.84
2022-10-22T18:42:27.414Z,16.77
2022-10-22T18:45:03.451Z,16.84
2022-10-22T18:47:35.712Z,16.77
2022-10-22T18:50:09.134Z,16.78
2022-10-22T18:52:42.632Z,16.77
2022-10-22T18:55:15.511Z,16.64
2022-10-22T18:57:49.835Z,16.61
2022-10-22T19:00:21.710Z,16.58
2022-10-22T19:02:53.096Z,16.64
2022-10-22T19:05:24.957Z,16.47
2022-10-22T19:07:59.862Z,16.34
2022-10-22T19:10:31.754Z,16.30
2022-10-22T19:13:11.118Z,16.16
2022-10-22T19:15:43.169Z,16.12
2022-10-22T19:18:16.121Z,16.06
2022-10-22T19:20:50.812Z,16.07
2022-10-22T19:23:22.059Z,16.05
2022-10-22T19:26:03.431Z,16.01
2022-10-22T19:28:37.838Z,15.87
2022-10-22T19:31:10.575Z,15.83
2022-10-22T19:33:43.343Z,15.71
2022-10-22T19:36:19.837Z,15.86
2022-10-22T19:38:52.010Z,15.77
2022-10-22T19:41:27.073Z,15.76
2022-10-22T19:44:03.627Z,15.74
2022-10-22T19:46:36.229Z,15.50
2022-10-22T19:49:08.989Z,15.49
2022-10-22T19:51:41.329Z,15.51
2022-10-22T19:54:20.909Z,15.55
2022-10-22T19:56:58.330Z,15.55
2022-10-22T19:59:34.450Z,15.56
2022-10-22T20:02:07.007Z,15.54
2022-10-22T20:04:50.089Z,15.64
2022-10-22T20:07:23.316Z,15.59
2022-10-22T20:09:55.607Z,15.86
2022-10-22T20:12:39.750Z,16.00
2022-10-22T20:15:14.949Z,15.64
2022-10-22T20:17:47.748Z,15.61
2022-10-22T20:20:21.962Z,15.63
2022-10-22T20:22:58.467Z,15.69
2022-10-22T20:25:30.729Z,15.77
2022-10-22T20:28:03.248Z,15.73
2022-10-22T20:30:38.427Z,15.89
2022-10-22T20:33:10.907Z,15.92
2022-10-22T20:35:43.288Z,15.93
2022-10-22T20:38:17.968Z,16.00
2022-10-22T20:40:50.167Z,15.96
2022-10-22T20:43:22.849Z,16.07
2022-10-22T20:45:57.627Z,16.02
2022-10-22T20:48:31.807Z,16.02
2022-10-22T20:51:05.369Z,16.12
2022-10-22T20:53:37.497Z,16.27
2022-10-22T20:56:10.916Z,16.19
2022-10-22T20:58:53.986Z,16.38
2022-10-22T21:01:28.705Z,16.37
2022-10-22T21:04:00.098Z,16.59
2022-10-22T21:06:33.233Z,16.55
2022-10-22T21:09:05.782Z,16.51
2022-10-22T21:11:37.740Z,16.39
2022-10-22T21:14:11.098Z,16.40
2022-10-22T21:16:49.526Z,16.41
2022-10-22T21:19:22.705Z,16.41
2022-10-22T21:21:53.815Z,16.60
2022-10-22T21:24:26.643Z,16.42
2022-10-22T21:26:57.871Z,16.47
2022-10-22T21:29:29.297Z,16.44
2022-10-22T21:32:03.014Z,16.52
2022-10-22T21:34:38.825Z,16.49
2022-10-22T21:37:10.584Z,16.44
2022-10-22T21:39:42.274Z,16.42
2022-10-22T21:42:18.076Z,16.37
2022-10-22T21:44:49.699Z,16.28
2022-10-22T21:47:23.676Z,16.41
2022-10-22T21:49:56.785Z,16.47
2022-10-22T21:52:28.755Z,16.53
2022-10-22T21:55:00.917Z,16.66
2022-10-22T21:57:32.887Z,16.46
2022-10-22T22:00:05.240Z,16.68
2022-10-22T22:02:40.047Z,16.41
2022-10-22T22:05:13.336Z,16.31
2022-10-22T22:07:45.257Z,16.31
2022-10-22T22:10:17.537Z,16.22
2022-10-22T22:12:49.395Z,16.13
2022-10-22T22:15:22.997Z,16.30
2022-10-22T22:17:57.583Z,15.95
2022-10-22T22:20:29.935Z,15.94
2022-10-22T22:23:01.795Z,15.90
2022-10-22T22:25:34.003Z,15.88
2022-10-22T22:28:05.974Z,15.75
2022-10-22T22:30:38.374Z,15.69
2022-10-22T22:33:12.974Z,15.76
2022-10-22T22:35:45.478Z,15.63
2022-10-22T22:38:17.515Z,15.47
2022-10-22T22:40:49.714Z,15.53
2022-10-22T22:43:21.556Z,15.32
2022-10-22T22:46:02.497Z,15.19
2022-10-22T22:48:37.617Z,15.26
2022-10-22T22:51:10.955Z,15.29
2022-10-22T22:53:42.898Z,15.28
2022-10-22T22:56:16.756Z,15.17
2022-10-22T22:59:09.015Z,15.19
2022-10-22T23:01:45.633Z,15.10
2022-10-22T23:04:23.893Z,15.12
2022-10-22T23:06:58.710Z,15.04
2022-10-22T23:10:07.477Z,14.99
2022-10-22T23:12:39.884Z,14.93
2022-10-22T23:15:12.719Z,14.95
2022-10-22T23:17:45.020Z,14.88
2022-10-22T23:20:19.618Z,14.78
2022-10-22T23:22:51.879Z,14.82
2022-10-22T23:25:23.765Z,14.86
2022-10-22T23:27:55.938Z,14.85
2022-10-22T23:30:27.997Z,14.72
2022-10-22T23:33:00.084Z,14.68
2022-10-22T23:35:34.696Z,14.65
2022-10-22T23:38:06.859Z,14.79
2022-10-22T23:40:38.757Z,14.70
2022-10-22T23:43:12.038Z,14.53
2022-10-22T23:45:43.819Z,14.51
2022-10-22T23:48:15.977Z,14.56
2022-10-22T23:50:50.946Z,14.50
2022-10-22T23:53:23.077Z,14.50
2022-10-22T23:55:54.937Z,14.49
2022-10-22T23:58:27.097Z,14.45
